createdAt,value
2022-09-28T00:01:25.474Z,8.10
2022-09-28T00:04:12.226Z,11.45
2022-09-28T00:06:57.536Z,11.68
2022-09-28T00:09:43.301Z,6.47
2022-09-28T00:12:29.940Z,8.38
2022-09-28T00:15:16.224Z,5.80
2022-09-28T00:18:01.936Z,4.13
2022-09-28T00:20:47.356Z,5.95
2022-09-28T00:23:33.468Z,10.45
2022-09-28T00:26:19.159Z,11.05
2022-09-28T00:29:04.974Z,12.77
2022-09-28T00:32:02.519Z,9.60
2022-09-28T00:34:49.067Z,12.43
2022-09-28T00:37:34.609Z,17.27
2022-09-28T00:40:21.198Z,19.48
2022-09-28T00:43:26.809Z,24.92
2022-09-28T00:46:47.161Z,32.33
2022-09-28T00:49:59.696Z,26.55
2022-09-28T00:53:11.789Z,23.23
2022-09-28T00:56:03.757Z,26.23
2022-09-28T00:58:53.132Z,29.75
2022-09-28T01:01:38.978Z,32.33
2022-09-28T01:04:28.030Z,24.42
2022-09-28T01:07:17.932Z,27.77
2022-09-28T01:10:04.793Z,28.60
2022-09-28T01:12:50.164Z,21.55
2022-09-28T01:15:45.026Z,24.60
2022-09-28T01:18:52.022Z,21.63
2022-09-28T01:21:52.463Z,26.33
2022-09-28T01:24:48.165Z,20.85
2022-09-28T01:27:40.246Z,16.98
2022-09-28T01:30:25.891Z,16.60
2022-09-28T01:33:20.842Z,14.55
2022-09-28T01:36:12.779Z,22.52
2022-09-28T01:39:05.873Z,14.40
2022-09-28T01:41:54.586Z,13.77
2022-09-28T01:44:44.572Z,15.80
2022-09-28T01:47:36.295Z,13.80
2022-09-28T01:50:25.836Z,21.38
2022-09-28T01:53:22.475Z,16.40
2022-09-28T01:56:38.814Z,15.20
2022-09-28T01:59:28.575Z,19.02
2022-09-28T02:02:25.869Z,20.30
2022-09-28T02:05:17.225Z,18.38
2022-09-28T02:08:10.452Z,17.65
2022-09-28T02:11:08.056Z,12.07
2022-09-28T02:13:59.038Z,11.48
2022-09-28T02:16:48.158Z,22.37
2022-09-28T02:19:35.956Z,16.88
2022-09-28T02:22:43.912Z,12.60
2022-09-28T02:25:38.918Z,20.45
2022-09-28T02:28:25.442Z,14.90
2022-09-28T02:31:10.903Z,14.60
2022-09-28T02:33:58.147Z,20.05
2022-09-28T02:36:45.149Z,17.85
2022-09-28T02:39:30.579Z,18.08
2022-09-28T02:42:34.005Z,16.48
2022-09-28T02:45:45.335Z,21.92
2022-09-28T02:49:21.762Z,13.70
2022-09-28T02:52:27.521Z,14.02
2022-09-28T02:55:21.924Z,16.50
2022-09-28T02:58:23.078Z,15.30
2022-09-28T03:01:22.496Z,19.20
2022-09-28T03:04:30.281Z,15.63
2022-09-28T03:07:24.941Z,18.48
2022-09-28T03:10:18.808Z,18.75
2022-09-28T03:13:05.717Z,14.60
2022-09-28T03:15:52.424Z,12.18
2022-09-28T03:18:38.507Z,20.20
2022-09-28T03:21:23.896Z,17.50
2022-09-28T03:24:11.216Z,15.10
2022-09-28T03:26:56.839Z,16.75
2022-09-28T03:29:42.236Z,16.83
2022-09-28T03:32:28.117Z,18.55
2022-09-28T03:35:13.620Z,17.15
2022-09-28T03:37:59.178Z,16.58
2022-09-28T03:40:55.059Z,14.95
2022-09-28T03:43:41.098Z,13.45
2022-09-28T03:46:27.510Z,12.48
2022-09-28T03:49:16.771Z,10.18
2022-09-28T03:52:03.878Z,6.15
2022-09-28T03:54:49.559Z,8.07
2022-09-28T03:57:35.363Z,3.90
2022-09-28T04:00:20.988Z,4.40
2022-09-28T04:03:06.608Z,7.32
2022-09-28T04:05:53.103Z,6.90
2022-09-28T04:08:38.860Z,6.18
2022-09-28T04:11:24.327Z,5.28
2022-09-28T04:14:09.786Z,11.00
2022-09-28T04:16:55.177Z,3.75
2022-09-28T04:19:42.666Z,6.35
2022-09-28T04:22:38.666Z,4.90
2022-09-28T04:25:24.157Z,3.00
2022-09-28T04:28:28.307Z,7.70
2022-09-28T04:31:17.653Z,3.10
2022-09-28T04:34:03.150Z,2.95
2022-09-28T04:36:48.905Z,4.28
2022-09-28T04:39:34.422Z,1.63
2022-09-28T04:42:20.817Z,5.07
2022-09-28T04:45:09.082Z,15.43
2022-09-28T04:47:57.765Z,1.15
2022-09-28T04:50:55.571Z,3.75
2022-09-28T04:53:41.857Z,4.82
2022-09-28T04:56:27.765Z,3.65
2022-09-28T04:59:13.592Z,4.43
2022-09-28T05:02:00.428Z,5.15
2022-09-28T05:05:12.096Z,3.90
2022-09-28T05:08:24.112Z,8.50
2022-09-28T05:11:12.314Z,5.65
2022-09-28T05:13:57.818Z,4.20
2022-09-28T05:16:44.994Z,6.35
2022-09-28T05:19:45.889Z,3.22
2022-09-28T05:22:33.171Z,4.00
2022-09-28T05:25:19.316Z,5.22
2022-09-28T05:28:13.914Z,4.80
2022-09-28T05:31:19.372Z,5.03
2022-09-28T05:34:37.248Z,5.68
2022-09-28T05:37:23.408Z,6.00
2022-09-28T05:40:09.451Z,5.22
2022-09-28T05:42:59.954Z,6.57
2022-09-28T05:45:45.392Z,10.20
2022-09-28T05:48:31.583Z,11.77
2022-09-28T05:51:17.152Z,8.05
2022-09-28T05:54:05.896Z,6.50
2022-09-28T05:57:06.031Z,6.43
2022-09-28T05:59:51.841Z,10.35
2022-09-28T06:02:37.679Z,12.60
2022-09-28T06:05:25.223Z,7.32
2022-09-28T06:08:11.717Z,6.85
2022-09-28T06:11:02.591Z,12.77
2022-09-28T06:13:48.236Z,10.38
2022-09-28T06:16:34.987Z,12.60
2022-09-28T06:19:20.383Z,17.38
2022-09-28T06:22:24.195Z,14.27
2022-09-28T06:25:35.854Z,14.60
2022-09-28T06:28:21.575Z,11.85
2022-09-28T06:31:07.283Z,9.75
2022-09-28T06:34:02.183Z,12.15
2022-09-28T06:36:49.009Z,13.52
2022-09-28T06:39:34.728Z,12.90
2022-09-28T06:42:20.197Z,17.05
2022-09-28T06:45:31.865Z,12.90
2022-09-28T06:48:40.311Z,10.57
2022-09-28T06:51:28.116Z,8.73
2022-09-28T06:54:22.815Z,16.25
2022-09-28T06:57:16.651Z,13.50
2022-09-28T07:00:02.532Z,14.38
2022-09-28T07:02:48.124Z,13.38
2022-09-28T07:05:56.303Z,11.48
2022-09-28T07:09:14.222Z,11.80
2022-09-28T07:12:19.628Z,8.25
2022-09-28T07:15:32.387Z,12.93
2022-09-28T07:18:18.864Z,13.02
2022-09-28T07:21:08.758Z,14.77
2022-09-28T07:23:55.676Z,20.08
2022-09-28T07:26:41.477Z,15.95
2022-09-28T07:29:51.359Z,13.70
2022-09-28T07:32:41.889Z,12.55
2022-09-28T07:35:52.448Z,11.32
2022-09-28T07:38:41.245Z,13.25
2022-09-28T07:41:36.091Z,7.25
2022-09-28T07:44:25.179Z,4.32
2022-09-28T07:47:12.839Z,5.25
2022-09-28T07:50:18.391Z,9.65
2022-09-28T07:53:23.694Z,7.30
2022-09-28T07:56:20.638Z,7.50
2022-09-28T07:59:17.761Z,5.57
2022-09-28T08:02:37.600Z,5.13
2022-09-28T08:05:23.576Z,3.85
2022-09-28T08:08:10.083Z,4.47
2022-09-28T08:10:57.022Z,5.63
2022-09-28T08:14:02.329Z,5.38
2022-09-28T08:17:07.607Z,6.18
2022-09-28T08:20:17.430Z,4.88
2022-09-28T08:23:08.696Z,5.10
2022-09-28T08:25:56.480Z,2.70
2022-09-28T08:28:43.592Z,4.05
2022-09-28T08:32:01.857Z,4.63
2022-09-28T08:34:47.281Z,2.85
2022-09-28T08:37:55.833Z,5.88
2022-09-28T08:41:25.138Z,1.95
2022-09-28T08:44:53.647Z,3.08
2022-09-28T08:48:56.264Z,3.85
2022-09-28T08:52:17.243Z,1.67
2022-09-28T08:55:38.145Z,4.88
2022-09-28T08:58:32.767Z,3.67
2022-09-28T09:01:21.487Z,3.95
2022-09-28T09:04:08.304Z,2.53
2022-09-28T09:07:20.613Z,3.70
2022-09-28T09:10:35.408Z,1.55
2022-09-28T09:13:49.376Z,1.83
2022-09-28T09:16:49.416Z,5.15
2022-09-28T09:20:14.499Z,1.15
2022-09-28T09:23:36.033Z,3.47
2022-09-28T09:26:39.379Z,1.98
2022-09-28T09:29:40.194Z,3.25
2022-09-28T09:32:40.181Z,2.45
2022-09-28T09:35:31.484Z,1.60
2022-09-28T09:39:03.267Z,9.15
2022-09-28T09:42:42.419Z,4.85
2022-09-28T09:46:20.168Z,2.15
2022-09-28T09:49:36.090Z,1.95
2022-09-28T09:52:46.724Z,2.90
2022-09-28T09:55:43.897Z,4.07
2022-09-28T09:58:52.757Z,5.88
2022-09-28T10:01:42.628Z,4.03
2022-09-28T10:04:44.709Z,3.78
2022-09-28T10:08:04.867Z,3.55
2022-09-28T10:11:05.752Z,2.30
2022-09-28T10:13:52.259Z,1.98
2022-09-28T10:17:07.664Z,5.13
2022-09-28T10:20:34.810Z,4.07
2022-09-28T10:23:54.878Z,2.90
2022-09-28T10:26:44.298Z,5.82
2022-09-28T10:29:44.356Z,2.88
2022-09-28T10:32:44.734Z,1.00
2022-09-28T10:35:42.222Z,2.65
2022-09-28T10:38:31.810Z,0.43
2022-09-28T10:41:26.401Z,1.08
2022-09-28T10:44:19.468Z,3.60
2022-09-28T10:47:35.811Z,1.20
2022-09-28T10:50:28.061Z,4.28
2022-09-28T10:53:21.700Z,3.28
2022-09-28T10:56:40.043Z,3.55
2022-09-28T10:59:29.767Z,1.23
2022-09-28T11:02:40.415Z,0.28
2022-09-28T11:05:36.116Z,1.42
2022-09-28T11:08:29.712Z,0.95
2022-09-28T11:11:21.791Z,2.95
2022-09-28T11:14:30.405Z,1.90
2022-09-28T11:17:31.249Z,2.58
2022-09-28T11:20:28.116Z,4.07
2022-09-28T11:23:30.179Z,1.35
2022-09-28T11:26:23.368Z,3.05
2022-09-28T11:29:26.869Z,2.95
2022-09-28T11:32:43.093Z,0.82
2022-09-28T11:35:47.042Z,0.20
2022-09-28T11:38:40.622Z,0.77
2022-09-28T11:42:03.041Z,2.55
2022-09-28T11:45:25.274Z,0.22
2022-09-28T11:48:22.071Z,1.65
2022-09-28T11:51:16.851Z,0.32
2022-09-28T11:54:31.606Z,0.50
2022-09-28T11:57:25.156Z,2.67
2022-09-28T12:00:22.385Z,0.32
2022-09-28T12:03:36.197Z,1.90
2022-09-28T12:06:34.107Z,1.05
2022-09-28T12:09:32.941Z,0.85
2022-09-28T12:12:35.541Z,0.73
2022-09-28T12:15:35.012Z,0.90
2022-09-28T12:18:53.521Z,0.60
2022-09-28T12:21:44.945Z,2.42
2022-09-28T12:24:38.452Z,3.35
2022-09-28T12:27:41.142Z,2.20
2022-09-28T12:30:31.804Z,5.68
2022-09-28T12:33:17.457Z,1.13
2022-09-28T12:36:41.630Z,2.78
2022-09-28T12:39:57.973Z,1.05
2022-09-28T12:43:15.840Z,4.22
2022-09-28T12:46:11.953Z,2.00
2022-09-28T12:53:20.935Z,9.80
2022-09-28T12:56:30.103Z,1.75
2022-09-28T12:59:21.626Z,2.58
2022-09-28T13:02:40.077Z,7.10
2022-09-28T13:06:04.559Z,6.30
2022-09-28T13:09:05.725Z,2.50
2022-09-28T13:11:58.793Z,4.90
2022-09-28T13:15:02.380Z,1.30
2022-09-28T13:17:54.916Z,3.90
2022-09-28T13:20:46.479Z,5.00
2022-09-28T13:23:40.603Z,0.22
2022-09-28T13:26:31.741Z,1.98
2022-09-28T13:29:19.695Z,2.08
2022-09-28T13:32:08.256Z,2.38
2022-09-28T13:34:54.853Z,6.15
2022-09-28T13:37:40.844Z,4.85
2022-09-28T13:41:04.215Z,1.85
2022-09-28T13:44:11.712Z,1.27
2022-09-28T13:47:03.428Z,0.43
2022-09-28T13:50:16.897Z,2.95
2022-09-28T13:53:35.685Z,0.13
2022-09-28T13:56:38.188Z,1.13
2022-09-28T13:59:27.797Z,1.60
2022-09-28T14:02:48.678Z,3.55
2022-09-28T14:06:03.056Z,0.30
2022-09-28T14:09:13.211Z,0.20
2022-09-28T14:12:01.244Z,1.38
2022-09-28T14:14:52.023Z,2.47
2022-09-28T14:17:53.956Z,2.55
2022-09-28T14:20:46.819Z,2.75
2022-09-28T14:23:45.532Z,4.32
2022-09-28T14:27:07.988Z,1.13
2022-09-28T14:33:00.228Z,5.03
2022-09-28T14:35:56.572Z,1.90
2022-09-28T14:39:07.202Z,2.70
2022-09-28T14:41:52.781Z,2.00
2022-09-28T14:45:07.836Z,4.65
2022-09-28T14:48:14.030Z,2.63
2022-09-28T14:51:30.241Z,1.13
2022-09-28T14:54:23.080Z,1.00
2022-09-28T14:57:19.474Z,1.00
2022-09-28T15:00:16.345Z,1.05
2022-09-28T15:03:09.019Z,3.75
2022-09-28T15:05:57.367Z,3.53
2022-09-28T15:08:42.886Z,0.43
2022-09-28T15:11:28.728Z,1.30
2022-09-28T15:14:14.353Z,6.10
2022-09-28T15:17:04.108Z,2.00
2022-09-28T15:20:14.045Z,3.38
2022-09-28T15:23:00.510Z,1.17
2022-09-28T15:25:53.335Z,1.77
2022-09-28T15:28:44.894Z,3.13
2022-09-28T15:31:36.116Z,1.23
2022-09-28T15:34:54.816Z,1.77
2022-09-28T15:37:40.870Z,3.63
2022-09-28T15:40:37.901Z,4.05
2022-09-28T15:43:29.054Z,1.58
2022-09-28T15:46:21.609Z,3.05
2022-09-28T15:49:20.152Z,0.50
2022-09-28T15:52:06.120Z,5.43
2022-09-28T15:54:51.931Z,3.25
2022-09-28T15:57:40.502Z,3.08
2022-09-28T16:00:31.607Z,1.35
2022-09-28T16:03:16.860Z,2.75
2022-09-28T16:06:08.313Z,2.78
2022-09-28T16:08:53.824Z,2.00
2022-09-28T16:11:41.189Z,1.63
2022-09-28T16:14:27.635Z,2.28
2022-09-28T16:17:18.948Z,1.23
2022-09-28T16:20:34.738Z,0.60
2022-09-28T16:23:31.634Z,4.38
2022-09-28T16:26:32.437Z,1.70
2022-09-28T16:29:40.041Z,1.35
2022-09-28T16:32:25.636Z,1.13
2022-09-28T16:35:11.172Z,2.63
2022-09-28T16:38:22.924Z,1.85
2022-09-28T16:41:09.142Z,2.38
2022-09-28T16:44:01.515Z,1.70
2022-09-28T16:46:47.429Z,1.17
2022-09-28T16:49:34.010Z,2.72
2022-09-28T16:52:39.220Z,0.80
2022-09-28T16:55:41.326Z,3.33
2022-09-28T16:58:27.912Z,1.13
2022-09-28T17:01:13.241Z,3.28
2022-09-28T17:03:58.797Z,1.02
2022-09-28T17:06:44.874Z,3.15
2022-09-28T17:09:30.307Z,2.17
2022-09-28T17:12:20.355Z,1.30
2022-09-28T17:15:06.187Z,1.73
2022-09-28T17:17:52.188Z,1.83
2022-09-28T17:20:39.215Z,1.00
2022-09-28T17:23:24.896Z,4.82
2022-09-28T17:26:17.348Z,0.90
2022-09-28T17:29:02.849Z,3.58
2022-09-28T17:31:48.545Z,2.28
2022-09-28T17:34:34.141Z,0.43
2022-09-28T17:37:19.377Z,4.15
2022-09-28T17:40:28.520Z,3.03
2022-09-28T17:43:14.332Z,3.05
2022-09-28T17:45:59.821Z,2.42
2022-09-28T17:48:47.159Z,2.35
2022-09-28T17:51:34.968Z,8.55
2022-09-28T17:54:22.576Z,5.18
2022-09-28T17:57:10.226Z,2.42
2022-09-28T17:59:55.921Z,4.65
2022-09-28T18:02:41.505Z,3.88
2022-09-28T18:05:29.502Z,2.85
2022-09-28T18:08:18.947Z,3.80
2022-09-28T18:11:04.407Z,5.25
2022-09-28T18:13:49.973Z,1.42
2022-09-28T18:16:35.763Z,2.65
2022-09-28T18:19:21.206Z,1.50
2022-09-28T18:22:06.460Z,2.92
2022-09-28T18:24:51.829Z,5.32
2022-09-28T18:27:37.471Z,5.95
2022-09-28T18:30:27.716Z,9.02
2022-09-28T18:33:14.549Z,6.10
2022-09-28T18:36:00.155Z,15.43
2022-09-28T18:38:45.496Z,12.10
2022-09-28T18:41:31.037Z,7.25
2022-09-28T18:44:16.725Z,9.02
2022-09-28T18:47:02.501Z,3.80
2022-09-28T18:49:49.101Z,4.72
2022-09-28T18:52:41.939Z,4.53
2022-09-28T18:55:28.947Z,5.57
2022-09-28T18:58:14.866Z,2.72
2022-09-28T19:01:28.276Z,2.25
2022-09-28T19:04:12.228Z,5.80
2022-09-28T19:06:57.783Z,6.03
2022-09-28T19:09:44.213Z,2.40
2022-09-28T19:12:29.677Z,6.25
2022-09-28T19:15:15.150Z,3.50
2022-09-28T19:18:00.836Z,4.55
2022-09-28T19:20:46.459Z,5.85
2022-09-28T19:23:32.798Z,4.45
2022-09-28T19:26:21.039Z,4.75
2022-09-28T19:29:06.783Z,5.13
2022-09-28T19:31:52.146Z,3.65
2022-09-28T19:34:38.166Z,4.00
2022-09-28T19:37:23.669Z,1.55
2022-09-28T19:40:09.592Z,5.13
2022-09-28T19:42:55.004Z,7.43
2022-09-28T19:45:40.934Z,3.92
2022-09-28T19:48:27.478Z,2.03
2022-09-28T19:51:13.220Z,6.57
2022-09-28T19:54:01.090Z,5.32
2022-09-28T19:56:48.432Z,6.10
2022-09-28T19:59:34.224Z,4.90
2022-09-28T20:02:20.431Z,9.85
2022-09-28T20:05:06.105Z,4.15
2022-09-28T20:07:51.746Z,1.70
2022-09-28T20:10:37.267Z,3.75
2022-09-28T20:13:29.167Z,3.25
2022-09-28T20:16:17.176Z,2.67
2022-09-28T20:19:04.790Z,3.35
2022-09-28T20:21:50.555Z,3.80
2022-09-28T20:24:36.032Z,1.73
2022-09-28T20:27:25.570Z,7.07
2022-09-28T20:30:13.186Z,5.43
2022-09-28T20:32:58.896Z,8.63
2022-09-28T20:35:44.497Z,3.80
2022-09-28T20:38:30.315Z,4.72
2022-09-28T20:41:18.664Z,8.20
2022-09-28T20:44:06.489Z,5.35
2022-09-28T20:46:52.292Z,5.78
2022-09-28T20:49:38.230Z,4.45
2022-09-28T20:52:23.448Z,7.18
2022-09-28T20:55:09.300Z,6.07
2022-09-28T20:57:54.947Z,7.22
2022-09-28T21:00:40.409Z,7.78
2022-09-28T21:03:25.999Z,3.95
2022-09-28T21:06:12.388Z,3.63
2022-09-28T21:08:58.765Z,3.17
2022-09-28T21:11:44.150Z,9.65
2022-09-28T21:14:29.578Z,4.97
2022-09-28T21:17:15.081Z,5.80
2022-09-28T21:20:00.334Z,4.88
2022-09-28T21:22:45.755Z,6.85
2022-09-28T21:25:31.389Z,2.72
2022-09-28T21:28:17.671Z,4.72
2022-09-28T21:31:06.570Z,5.95
2022-09-28T21:33:52.310Z,4.72
2022-09-28T21:36:37.765Z,2.55
2022-09-28T21:39:23.130Z,3.85
2022-09-28T21:42:08.313Z,3.05
2022-09-28T21:44:56.333Z,6.03
2022-09-28T21:47:52.746Z,6.20
2022-09-28T21:50:38.079Z,7.35
2022-09-28T21:53:29.353Z,6.95
2022-09-28T21:56:14.585Z,1.60
2022-09-28T21:59:01.420Z,4.05
2022-09-28T22:01:48.191Z,10.25
2022-09-28T22:04:33.530Z,3.53
2022-09-28T22:07:18.982Z,5.88
2022-09-28T22:10:05.607Z,6.03
2022-09-28T22:12:51.028Z,7.82
2022-09-28T22:15:36.448Z,4.03
2022-09-28T22:18:22.166Z,4.72
2022-09-28T22:21:10.861Z,3.35
2022-09-28T22:24:05.063Z,6.45
2022-09-28T22:26:50.738Z,7.70
2022-09-28T22:29:36.548Z,6.88
2022-09-28T22:32:23.832Z,3.47
2022-09-28T22:35:09.808Z,3.63
2022-09-28T22:37:55.258Z,4.97
2022-09-28T22:40:51.836Z,3.33
2022-09-28T22:43:38.153Z,3.80
2022-09-28T22:46:28.247Z,2.38
2022-09-28T22:49:14.406Z,9.38
2022-09-28T22:51:59.854Z,5.18
2022-09-28T22:54:45.675Z,3.28
2022-09-28T22:57:31.189Z,5.90
2022-09-28T23:00:16.676Z,3.45
2022-09-28T23:03:02.356Z,2.30
2022-09-28T23:05:56.927Z,10.88
2022-09-28T23:08:43.129Z,8.43
2022-09-28T23:11:29.494Z,2.03
2022-09-28T23:14:14.809Z,4.75
2022-09-28T23:17:00.165Z,1.52
2022-09-28T23:19:45.609Z,3.20
2022-09-28T23:22:31.103Z,4.72
2022-09-28T23:25:17.865Z,5.45
2022-09-28T23:28:03.460Z,12.40
2022-09-28T23:30:49.192Z,2.15
2022-09-28T23:33:34.631Z,5.40
2022-09-28T23:36:19.994Z,7.10
2022-09-28T23:39:05.230Z,5.38
2022-09-28T23:41:50.637Z,4.25
2022-09-28T23:44:36.624Z,6.97
2022-09-28T23:47:21.952Z,4.53
2022-09-28T23:50:07.824Z,4.85
2022-09-28T23:52:53.008Z,5.40
2022-09-28T23:55:38.365Z,6.82
2022-09-28T23:58:24.259Z,3.38
